sensor_id;sensor_type;location;lat;lon;timestamp;P1;durP1;ratioP1;P2;durP2;ratioP2
52894;SDS011;38759;53.396;6.722;2023-10-13T00:02:01;61.33;;;16.23;;
52894;SDS011;38759;53.396;6.722;2023-10-13T00:04:30;43.88;;;18.17;;
52894;SDS011;38759;53.396;6.722;2023-10-13T00:07:00;60.45;;;20.80;;
52894;SDS011;38759;53.396;6.722;2023-10-13T00:09:28;52.92;;;17.88;;
52894;SDS011;38759;53.396;6.722;2023-10-13T00:12:06;52.75;;;16.73;;
52894;SDS011;38759;53.396;6.722;2023-10-13T00:14:38;53.75;;;20.25;;
52894;SDS011;38759;53.396;6.722;2023-10-13T00:17:06;58.13;;;16.75;;
52894;SDS011;38759;53.396;6.722;2023-10-13T00:19:34;41.67;;;16.08;;
52894;SDS011;38759;53.396;6.722;2023-10-13T00:22:10;45.42;;;15.88;;
52894;SDS011;38759;53.396;6.722;2023-10-13T00:24:40;39.67;;;15.32;;
52894;SDS011;38759;53.396;6.722;2023-10-13T00:27:16;56.75;;;18.00;;
52894;SDS011;38759;53.396;6.722;2023-10-13T00:29:56;58.10;;;17.08;;
52894;SDS011;38759;53.396;6.722;2023-10-13T00:32:47;47.03;;;17.60;;
52894;SDS011;38759;53.396;6.722;2023-10-13T00:35:25;47.28;;;17.63;;
52894;SDS011;38759;53.396;6.722;2023-10-13T00:38:07;51.15;;;16.05;;
52894;SDS011;38759;53.396;6.722;2023-10-13T00:40:41;42.35;;;16.52;;
52894;SDS011;38759;53.396;6.722;2023-10-13T00:43:09;48.78;;;16.42;;
52894;SDS011;38759;53.396;6.722;2023-10-13T00:48:24;61.58;;;18.70;;
52894;SDS011;38759;53.396;6.722;2023-10-13T00:50:57;55.97;;;18.17;;
52894;SDS011;38759;53.396;6.722;2023-10-13T00:53:29;44.13;;;16.13;;
52894;SDS011;38759;53.396;6.722;2023-10-13T00:55:59;57.15;;;20.48;;
52894;SDS011;38759;53.396;6.722;2023-10-13T00:58:47;62.35;;;19.25;;
52894;SDS011;38759;53.396;6.722;2023-10-13T01:01:15;55.88;;;19.35;;
52894;SDS011;38759;53.396;6.722;2023-10-13T01:03:50;60.45;;;20.23;;
52894;SDS011;38759;53.396;6.722;2023-10-13T01:06:33;68.03;;;21.80;;
52894;SDS011;38759;53.396;6.722;2023-10-13T01:09:00;62.25;;;21.33;;
52894;SDS011;38759;53.396;6.722;2023-10-13T01:11:49;84.57;;;27.42;;
52894;SDS011;38759;53.396;6.722;2023-10-13T01:14:21;65.90;;;21.73;;
52894;SDS011;38759;53.396;6.722;2023-10-13T01:16:48;63.67;;;20.65;;
52894;SDS011;38759;53.396;6.722;2023-10-13T01:19:18;56.63;;;20.15;;
52894;SDS011;38759;53.396;6.722;2023-10-13T01:21:54;57.00;;;20.40;;
52894;SDS011;38759;53.396;6.722;2023-10-13T01:24:27;54.80;;;19.67;;
52894;SDS011;38759;53.396;6.722;2023-10-13T01:26:56;57.67;;;21.35;;
52894;SDS011;38759;53.396;6.722;2023-10-13T01:29:23;56.65;;;21.20;;
52894;SDS011;38759;53.396;6.722;2023-10-13T01:31:54;56.28;;;22.00;;
52894;SDS011;38759;53.396;6.722;2023-10-13T01:34:20;65.18;;;22.63;;
52894;SDS011;38759;53.396;6.722;2023-10-13T01:36:52;61.10;;;21.60;;
52894;SDS011;38759;53.396;6.722;2023-10-13T01:39:21;53.15;;;21.08;;
52894;SDS011;38759;53.396;6.722;2023-10-13T01:41:52;55.78;;;19.95;;
52894;SDS011;38759;53.396;6.722;2023-10-13T01:44:24;43.88;;;18.52;;
52894;SDS011;38759;53.396;6.722;2023-10-13T01:47:01;44.85;;;18.67;;
52894;SDS011;38759;53.396;6.722;2023-10-13T01:52:06;48.60;;;19.80;;
52894;SDS011;38759;53.396;6.722;2023-10-13T01:54:32;45.10;;;18.85;;
52894;SDS011;38759;53.396;6.722;2023-10-13T01:56:57;50.47;;;18.35;;
52894;SDS011;38759;53.396;6.722;2023-10-13T01:59:25;53.70;;;19.98;;
52894;SDS011;38759;53.396;6.722;2023-10-13T02:01:52;59.72;;;23.45;;
52894;SDS011;38759;53.396;6.722;2023-10-13T02:04:21;55.28;;;22.80;;
52894;SDS011;38759;53.396;6.722;2023-10-13T02:06:47;50.05;;;20.33;;
52894;SDS011;38759;53.396;6.722;2023-10-13T02:09:13;55.53;;;21.95;;
52894;SDS011;38759;53.396;6.722;2023-10-13T02:11:42;46.03;;;20.02;;
52894;SDS011;38759;53.396;6.722;2023-10-13T02:14:12;49.00;;;20.60;;
52894;SDS011;38759;53.396;6.722;2023-10-13T02:16:41;52.42;;;18.73;;
52894;SDS011;38759;53.396;6.722;2023-10-13T02:19:07;52.40;;;21.60;;
52894;SDS011;38759;53.396;6.722;2023-10-13T02:21:33;49.53;;;21.45;;
52894;SDS011;38759;53.396;6.722;2023-10-13T02:24:07;43.60;;;18.65;;
52894;SDS011;38759;53.396;6.722;2023-10-13T02:26:43;47.78;;;17.95;;
52894;SDS011;38759;53.396;6.722;2023-10-13T02:29:10;54.40;;;19.98;;
52894;SDS011;38759;53.396;6.722;2023-10-13T02:31:42;41.80;;;17.65;;
52894;SDS011;38759;53.396;6.722;2023-10-13T02:34:19;51.67;;;22.10;;
52894;SDS011;38759;53.396;6.722;2023-10-13T02:36:47;53.25;;;19.42;;
52894;SDS011;38759;53.396;6.722;2023-10-13T02:39:17;43.20;;;17.27;;
52894;SDS011;38759;53.396;6.722;2023-10-13T02:41:51;41.97;;;16.88;;
52894;SDS011;38759;53.396;6.722;2023-10-13T02:44:20;53.50;;;18.10;;
52894;SDS011;38759;53.396;6.722;2023-10-13T02:46:56;41.63;;;17.60;;
52894;SDS011;38759;53.396;6.722;2023-10-13T02:49:25;34.05;;;15.43;;
52894;SDS011;38759;53.396;6.722;2023-10-13T02:51:55;40.03;;;15.52;;
52894;SDS011;38759;53.396;6.722;2023-10-13T02:54:21;46.63;;;16.42;;
52894;SDS011;38759;53.396;6.722;2023-10-13T02:56:46;36.67;;;15.63;;
52894;SDS011;38759;53.396;6.722;2023-10-13T02:59:22;29.77;;;14.15;;
52894;SDS011;38759;53.396;6.722;2023-10-13T03:02:00;31.98;;;13.77;;
52894;SDS011;38759;53.396;6.722;2023-10-13T03:04:32;32.30;;;12.93;;
52894;SDS011;38759;53.396;6.722;2023-10-13T03:06:58;36.85;;;13.52;;
52894;SDS011;38759;53.396;6.722;2023-10-13T03:09:24;34.92;;;14.00;;
52894;SDS011;38759;53.396;6.722;2023-10-13T03:11:50;35.70;;;13.02;;
52894;SDS011;38759;53.396;6.722;2023-10-13T03:14:20;36.95;;;13.25;;
52894;SDS011;38759;53.396;6.722;2023-10-13T03:16:56;25.88;;;11.77;;
52894;SDS011;38759;53.396;6.722;2023-10-13T03:19:49;27.30;;;11.38;;
52894;SDS011;38759;53.396;6.722;2023-10-13T03:22:15;29.63;;;12.95;;
52894;SDS011;38759;53.396;6.722;2023-10-13T03:24:44;34.85;;;13.32;;
52894;SDS011;38759;53.396;6.722;2023-10-13T03:27:13;32.92;;;12.65;;
52894;SDS011;38759;53.396;6.722;2023-10-13T03:29:43;36.15;;;13.10;;
52894;SDS011;38759;53.396;6.722;2023-10-13T03:32:13;25.48;;;11.15;;
52894;SDS011;38759;53.396;6.722;2023-10-13T03:34:43;25.83;;;11.63;;
52894;SDS011;38759;53.396;6.722;2023-10-13T03:37:25;28.58;;;16.35;;
52894;SDS011;38759;53.396;6.722;2023-10-13T03:40:09;27.55;;;14.82;;
52894;SDS011;38759;53.396;6.722;2023-10-13T03:42:44;27.95;;;13.65;;
52894;SDS011;38759;53.396;6.722;2023-10-13T03:45:23;30.85;;;13.25;;
52894;SDS011;38759;53.396;6.722;2023-10-13T03:47:52;23.88;;;12.63;;
52894;SDS011;38759;53.396;6.722;2023-10-13T03:50:18;26.50;;;10.65;;
52894;SDS011;38759;53.396;6.722;2023-10-13T03:52:55;21.35;;;10.90;;
52894;SDS011;38759;53.396;6.722;2023-10-13T03:55:24;24.35;;;10.68;;
52894;SDS011;38759;53.396;6.722;2023-10-13T03:57:54;20.67;;;10.38;;
52894;SDS011;38759;53.396;6.722;2023-10-13T04:00:25;22.05;;;11.82;;
52894;SDS011;38759;53.396;6.722;2023-10-13T04:02:52;27.92;;;12.35;;
52894;SDS011;38759;53.396;6.722;2023-10-13T04:05:38;28.20;;;14.80;;
52894;SDS011;38759;53.396;6.722;2023-10-13T04:08:07;28.92;;;15.27;;
52894;SDS011;38759;53.396;6.722;2023-10-13T04:10:52;29.52;;;14.18;;
52894;SDS011;38759;53.396;6.722;2023-10-13T04:13:19;35.13;;;14.90;;
52894;SDS011;38759;53.396;6.722;2023-10-13T04:16:03;26.50;;;13.95;;
52894;SDS011;38759;53.396;6.722;2023-10-13T04:18:47;32.13;;;15.85;;
52894;SDS011;38759;53.396;6.722;2023-10-13T04:21:36;31.05;;;14.32;;
52894;SDS011;38759;53.396;6.722;2023-10-13T04:24:05;35.92;;;16.52;;
52894;SDS011;38759;53.396;6.722;2023-10-13T04:26:53;32.22;;;15.77;;
52894;SDS011;38759;53.396;6.722;2023-10-13T04:29:37;28.25;;;15.02;;
52894;SDS011;38759;53.396;6.722;2023-10-13T04:32:21;27.90;;;14.57;;
52894;SDS011;38759;53.396;6.722;2023-10-13T04:34:56;37.08;;;19.48;;
52894;SDS011;38759;53.396;6.722;2023-10-13T04:37:34;22.42;;;13.10;;
52894;SDS011;38759;53.396;6.722;2023-10-13T04:40:14;25.55;;;12.13;;
52894;SDS011;38759;53.396;6.722;2023-10-13T04:42:44;24.70;;;10.93;;
52894;SDS011;38759;53.396;6.722;2023-10-13T04:45:18;21.43;;;11.00;;
52894;SDS011;38759;53.396;6.722;2023-10-13T04:47:58;20.63;;;11.75;;
52894;SDS011;38759;53.396;6.722;2023-10-13T04:50:47;19.77;;;10.23;;
52894;SDS011;38759;53.396;6.722;2023-10-13T04:53:17;17.35;;;10.02;;
52894;SDS011;38759;53.396;6.722;2023-10-13T04:56:12;15.95;;;9.65;;
52894;SDS011;38759;53.396;6.722;2023-10-13T04:59:00;17.27;;;9.35;;
52894;SDS011;38759;53.396;6.722;2023-10-13T05:02:01;18.27;;;9.88;;
52894;SDS011;38759;53.396;6.722;2023-10-13T05:04:45;21.05;;;12.65;;
52894;SDS011;38759;53.396;6.722;2023-10-13T05:07:30;22.45;;;10.80;;
52894;SDS011;38759;53.396;6.722;2023-10-13T05:10:14;21.52;;;10.73;;
52894;SDS011;38759;53.396;6.722;2023-10-13T05:12:59;22.88;;;12.52;;
52894;SDS011;38759;53.396;6.722;2023-10-13T05:15:49;27.00;;;12.40;;
52894;SDS011;38759;53.396;6.722;2023-10-13T05:18:34;22.63;;;11.93;;
52894;SDS011;38759;53.396;6.722;2023-10-13T05:21:18;26.40;;;12.60;;
52894;SDS011;38759;53.396;6.722;2023-10-13T05:24:03;20.30;;;10.07;;
52894;SDS011;38759;53.396;6.722;2023-10-13T05:26:48;21.85;;;10.50;;
52894;SDS011;38759;53.396;6.722;2023-10-13T05:29:32;23.02;;;9.82;;
52894;SDS011;38759;53.396;6.722;2023-10-13T05:32:17;21.75;;;11.25;;
52894;SDS011;38759;53.396;6.722;2023-10-13T05:35:01;18.08;;;9.93;;
52894;SDS011;38759;53.396;6.722;2023-10-13T05:37:45;20.38;;;10.20;;
52894;SDS011;38759;53.396;6.722;2023-10-13T05:40:30;18.73;;;9.35;;
52894;SDS011;38759;53.396;6.722;2023-10-13T05:43:14;19.92;;;9.75;;
52894;SDS011;38759;53.396;6.722;2023-10-13T05:46:02;21.75;;;9.75;;
52894;SDS011;38759;53.396;6.722;2023-10-13T05:48:47;23.05;;;9.05;;
52894;SDS011;38759;53.396;6.722;2023-10-13T05:51:21;16.00;;;8.30;;
52894;SDS011;38759;53.396;6.722;2023-10-13T05:54:06;11.15;;;6.85;;
52894;SDS011;38759;53.396;6.722;2023-10-13T05:56:41;9.20;;;5.90;;
52894;SDS011;38759;53.396;6.722;2023-10-13T05:59:29;14.18;;;5.80;;
52894;SDS011;38759;53.396;6.722;2023-10-13T06:02:15;13.60;;;7.60;;
52894;SDS011;38759;53.396;6.722;2023-10-13T06:05:04;10.73;;;6.28;;
52894;SDS011;38759;53.396;6.722;2023-10-13T06:07:49;14.65;;;6.57;;
52894;SDS011;38759;53.396;6.722;2023-10-13T06:10:34;12.40;;;6.28;;
52894;SDS011;38759;53.396;6.722;2023-10-13T06:13:19;7.78;;;4.53;;
52894;SDS011;38759;53.396;6.722;2023-10-13T06:16:11;4.28;;;3.28;;
52894;SDS011;38759;53.396;6.722;2023-10-13T06:18:55;5.43;;;3.10;;
52894;SDS011;38759;53.396;6.722;2023-10-13T06:21:40;3.85;;;2.80;;
52894;SDS011;38759;53.396;6.722;2023-10-13T06:24:24;4.35;;;3.17;;
52894;SDS011;38759;53.396;6.722;2023-10-13T06:27:09;4.82;;;3.42;;
52894;SDS011;38759;53.396;6.722;2023-10-13T06:29:53;6.32;;;4.05;;
52894;SDS011;38759;53.396;6.722;2023-10-13T06:32:19;5.63;;;3.72;;
52894;SDS011;38759;53.396;6.722;2023-10-13T06:34:45;5.18;;;3.75;;
52894;SDS011;38759;53.396;6.722;2023-10-13T06:37:12;4.32;;;3.72;;
52894;SDS011;38759;53.396;6.722;2023-10-13T06:39:51;4.05;;;2.80;;
52894;SDS011;38759;53.396;6.722;2023-10-13T06:42:24;3.42;;;3.13;;
52894;SDS011;38759;53.396;6.722;2023-10-13T06:44:59;4.22;;;3.10;;
52894;SDS011;38759;53.396;6.722;2023-10-13T06:47:36;7.55;;;4.10;;
52894;SDS011;38759;53.396;6.722;2023-10-13T06:50:07;5.72;;;4.05;;
52894;SDS011;38759;53.396;6.722;2023-10-13T06:52:49;5.82;;;4.10;;
52894;SDS011;38759;53.396;6.722;2023-10-13T06:55:16;8.38;;;5.30;;
52894;SDS011;38759;53.396;6.722;2023-10-13T06:57:53;6.20;;;4.30;;
52894;SDS011;38759;53.396;6.722;2023-10-13T07:00:24;6.85;;;4.93;;
52894;SDS011;38759;53.396;6.722;2023-10-13T07:02:53;5.82;;;4.35;;
52894;SDS011;38759;53.396;6.722;2023-10-13T07:05:30;5.47;;;4.18;;
52894;SDS011;38759;53.396;6.722;2023-10-13T07:07:59;5.32;;;4.22;;
52894;SDS011;38759;53.396;6.722;2023-10-13T07:10:29;9.00;;;4.22;;
52894;SDS011;38759;53.396;6.722;2023-10-13T07:12:55;5.35;;;4.20;;
52894;SDS011;38759;53.396;6.722;2023-10-13T07:15:25;4.78;;;3.65;;
52894;SDS011;38759;53.396;6.722;2023-10-13T07:17:54;5.30;;;3.25;;
52894;SDS011;38759;53.396;6.722;2023-10-13T07:20:24;6.40;;;3.78;;
52894;SDS011;38759;53.396;6.722;2023-10-13T07:22:59;6.43;;;3.80;;
52894;SDS011;38759;53.396;6.722;2023-10-13T07:25:28;10.60;;;3.47;;
52894;SDS011;38759;53.396;6.722;2023-10-13T07:28:01;6.47;;;3.17;;
52894;SDS011;38759;53.396;6.722;2023-10-13T07:30:33;6.22;;;3.15;;
52894;SDS011;38759;53.396;6.722;2023-10-13T07:33:14;7.32;;;3.67;;
52894;SDS011;38759;53.396;6.722;2023-10-13T07:35:45;7.88;;;3.70;;
52894;SDS011;38759;53.396;6.722;2023-10-13T07:38:24;5.70;;;2.65;;
52894;SDS011;38759;53.396;6.722;2023-10-13T07:40:50;7.10;;;3.67;;
52894;SDS011;38759;53.396;6.722;2023-10-13T07:43:16;10.30;;;3.90;;
52894;SDS011;38759;53.396;6.722;2023-10-13T07:45:46;11.68;;;3.28;;
52894;SDS011;38759;53.396;6.722;2023-10-13T07:48:17;10.43;;;3.40;;
52894;SDS011;38759;53.396;6.722;2023-10-13T07:50:45;8.43;;;3.13;;
52894;SDS011;38759;53.396;6.722;2023-10-13T07:53:26;8.93;;;3.63;;
52894;SDS011;38759;53.396;6.722;2023-10-13T07:55:59;10.45;;;3.75;;
52894;SDS011;38759;53.396;6.722;2023-10-13T07:58:30;6.63;;;3.47;;
52894;SDS011;38759;53.396;6.722;2023-10-13T08:00:59;13.63;;;3.15;;
52894;SDS011;38759;53.396;6.722;2023-10-13T08:03:35;17.80;;;4.65;;
52894;SDS011;38759;53.396;6.722;2023-10-13T08:06:19;11.15;;;4.45;;
52894;SDS011;38759;53.396;6.722;2023-10-13T08:08:45;15.93;;;4.25;;
52894;SDS011;38759;53.396;6.722;2023-10-13T08:11:15;15.95;;;4.70;;
52894;SDS011;38759;53.396;6.722;2023-10-13T08:14:09;13.10;;;5.55;;
52894;SDS011;38759;53.396;6.722;2023-10-13T08:16:38;14.13;;;4.40;;
52894;SDS011;38759;53.396;6.722;2023-10-13T08:19:12;14.02;;;4.63;;
52894;SDS011;38759;53.396;6.722;2023-10-13T08:21:42;18.10;;;4.68;;
52894;SDS011;38759;53.396;6.722;2023-10-13T08:24:16;18.83;;;5.03;;
52894;SDS011;38759;53.396;6.722;2023-10-13T08:26:50;13.88;;;4.68;;
52894;SDS011;38759;53.396;6.722;2023-10-13T08:29:23;13.60;;;4.38;;
52894;SDS011;38759;53.396;6.722;2023-10-13T08:31:55;15.60;;;4.68;;
52894;SDS011;38759;53.396;6.722;2023-10-13T08:34:39;15.02;;;4.78;;
52894;SDS011;38759;53.396;6.722;2023-10-13T08:37:08;12.32;;;4.35;;
52894;SDS011;38759;53.396;6.722;2023-10-13T08:39:47;17.08;;;4.32;;
52894;SDS011;38759;53.396;6.722;2023-10-13T08:45:18;10.10;;;4.03;;
52894;SDS011;38759;53.396;6.722;2023-10-13T08:47:53;13.73;;;4.28;;
52894;SDS011;38759;53.396;6.722;2023-10-13T08:50:34;9.00;;;3.50;;
52894;SDS011;38759;53.396;6.722;2023-10-13T08:53:18;14.55;;;4.28;;
52894;SDS011;38759;53.396;6.722;2023-10-13T08:56:05;7.18;;;4.07;;
52894;SDS011;38759;53.396;6.722;2023-10-13T08:58:33;14.95;;;4.05;;
52894;SDS011;38759;53.396;6.722;2023-10-13T09:01:19;12.02;;;4.25;;
52894;SDS011;38759;53.396;6.722;2023-10-13T09:04:07;9.53;;;3.87;;
52894;SDS011;38759;53.396;6.722;2023-10-13T09:06:56;13.00;;;4.30;;
52894;SDS011;38759;53.396;6.722;2023-10-13T09:12:23;17.73;;;5.85;;
52894;SDS011;38759;53.396;6.722;2023-10-13T09:14:59;12.52;;;5.97;;
52894;SDS011;38759;53.396;6.722;2023-10-13T09:17:31;14.38;;;4.93;;
52894;SDS011;38759;53.396;6.722;2023-10-13T09:25:26;16.63;;;5.95;;
52894;SDS011;38759;53.396;6.722;2023-10-13T09:27:58;16.08;;;5.22;;
52894;SDS011;38759;53.396;6.722;2023-10-13T09:30:25;20.02;;;5.20;;
52894;SDS011;38759;53.396;6.722;2023-10-13T09:33:00;12.02;;;4.90;;
52894;SDS011;38759;53.396;6.722;2023-10-13T09:35:27;13.68;;;5.32;;
52894;SDS011;38759;53.396;6.722;2023-10-13T09:37:56;16.60;;;5.60;;
52894;SDS011;38759;53.396;6.722;2023-10-13T09:40:24;15.45;;;6.28;;
52894;SDS011;38759;53.396;6.722;2023-10-13T09:42:51;16.23;;;6.20;;
52894;SDS011;38759;53.396;6.722;2023-10-13T09:45:20;16.27;;;6.10;;
52894;SDS011;38759;53.396;6.722;2023-10-13T09:47:52;14.55;;;5.55;;
52894;SDS011;38759;53.396;6.722;2023-10-13T09:50:22;16.70;;;5.70;;
52894;SDS011;38759;53.396;6.722;2023-10-13T09:52:51;16.42;;;5.57;;
52894;SDS011;38759;53.396;6.722;2023-10-13T09:55:29;14.48;;;5.22;;
52894;SDS011;38759;53.396;6.722;2023-10-13T09:58:02;21.13;;;5.72;;
52894;SDS011;38759;53.396;6.722;2023-10-13T10:00:52;18.35;;;5.60;;
52894;SDS011;38759;53.396;6.722;2023-10-13T10:03:45;12.40;;;4.80;;
52894;SDS011;38759;53.396;6.722;2023-10-13T10:06:32;19.45;;;6.40;;
52894;SDS011;38759;53.396;6.722;2023-10-13T10:09:08;17.15;;;5.20;;
52894;SDS011;38759;53.396;6.722;2023-10-13T10:14:13;17.02;;;5.47;;
52894;SDS011;38759;53.396;6.722;2023-10-13T10:19:28;19.55;;;5.40;;
52894;SDS011;38759;53.396;6.722;2023-10-13T10:22:02;17.00;;;5.55;;
52894;SDS011;38759;53.396;6.722;2023-10-13T10:24:43;16.20;;;5.43;;
52894;SDS011;38759;53.396;6.722;2023-10-13T10:27:11;22.38;;;6.15;;
52894;SDS011;38759;53.396;6.722;2023-10-13T10:29:40;18.33;;;5.13;;
52894;SDS011;38759;53.396;6.722;2023-10-13T10:32:18;17.90;;;5.18;;
52894;SDS011;38759;53.396;6.722;2023-10-13T10:34:44;9.88;;;4.30;;
52894;SDS011;38759;53.396;6.722;2023-10-13T10:37:09;19.30;;;5.28;;
52894;SDS011;38759;53.396;6.722;2023-10-13T10:39:37;15.95;;;4.75;;
52894;SDS011;38759;53.396;6.722;2023-10-13T10:42:10;13.90;;;5.03;;
52894;SDS011;38759;53.396;6.722;2023-10-13T10:44:54;14.45;;;5.03;;
52894;SDS011;38759;53.396;6.722;2023-10-13T10:47:30;17.73;;;4.20;;
52894;SDS011;38759;53.396;6.722;2023-10-13T10:50:00;17.30;;;4.60;;
52894;SDS011;38759;53.396;6.722;2023-10-13T10:52:32;18.30;;;4.70;;
52894;SDS011;38759;53.396;6.722;2023-10-13T10:55:02;10.68;;;3.92;;
52894;SDS011;38759;53.396;6.722;2023-10-13T10:57:39;18.55;;;5.00;;
52894;SDS011;38759;53.396;6.722;2023-10-13T11:00:23;22.08;;;4.82;;
52894;SDS011;38759;53.396;6.722;2023-10-13T11:02:57;14.02;;;4.35;;
52894;SDS011;38759;53.396;6.722;2023-10-13T11:05:23;14.82;;;4.32;;
52894;SDS011;38759;53.396;6.722;2023-10-13T11:07:57;20.10;;;5.30;;
52894;SDS011;38759;53.396;6.722;2023-10-13T11:10:23;20.17;;;4.70;;
52894;SDS011;38759;53.396;6.722;2023-10-13T11:12:56;16.92;;;4.47;;
52894;SDS011;38759;53.396;6.722;2023-10-13T11:15:43;15.90;;;4.47;;
52894;SDS011;38759;53.396;6.722;2023-10-13T11:18:10;15.20;;;4.43;;
52894;SDS011;38759;53.396;6.722;2023-10-13T11:20:43;23.75;;;5.90;;
52894;SDS011;38759;53.396;6.722;2023-10-13T11:23:12;18.42;;;5.53;;
52894;SDS011;38759;53.396;6.722;2023-10-13T11:25:39;20.02;;;4.95;;
52894;SDS011;38759;53.396;6.722;2023-10-13T11:28:11;17.15;;;4.65;;
52894;SDS011;38759;53.396;6.722;2023-10-13T11:30:52;16.77;;;5.53;;
52894;SDS011;38759;53.396;6.722;2023-10-13T11:33:23;21.45;;;4.50;;
52894;SDS011;38759;53.396;6.722;2023-10-13T11:35:51;16.60;;;5.43;;
52894;SDS011;38759;53.396;6.722;2023-10-13T11:41:02;16.00;;;5.18;;
52894;SDS011;38759;53.396;6.722;2023-10-13T11:43:38;16.17;;;4.32;;
52894;SDS011;38759;53.396;6.722;2023-10-13T11:51:33;17.27;;;4.43;;
52894;SDS011;38759;53.396;6.722;2023-10-13T11:54:03;17.85;;;4.35;;
52894;SDS011;38759;53.396;6.722;2023-10-13T11:56:29;14.68;;;4.50;;
52894;SDS011;38759;53.396;6.722;2023-10-13T11:58:54;24.50;;;4.85;;
52894;SDS011;38759;53.396;6.722;2023-10-13T12:01:26;14.15;;;4.68;;
52894;SDS011;38759;53.396;6.722;2023-10-13T12:04:11;21.67;;;5.03;;
52894;SDS011;38759;53.396;6.722;2023-10-13T12:06:55;21.73;;;5.50;;
52894;SDS011;38759;53.396;6.722;2023-10-13T12:09:39;22.13;;;5.43;;
52894;SDS011;38759;53.396;6.722;2023-10-13T12:12:23;15.73;;;4.75;;
52894;SDS011;38759;53.396;6.722;2023-10-13T12:14:53;21.50;;;5.05;;
52894;SDS011;38759;53.396;6.722;2023-10-13T12:17:27;17.70;;;4.93;;
52894;SDS011;38759;53.396;6.722;2023-10-13T12:19:57;19.90;;;6.38;;
52894;SDS011;38759;53.396;6.722;2023-10-13T12:22:24;13.00;;;4.75;;
52894;SDS011;38759;53.396;6.722;2023-10-13T12:24:53;18.67;;;5.40;;
52894;SDS011;38759;53.396;6.722;2023-10-13T12:27:21;19.33;;;4.72;;
52894;SDS011;38759;53.396;6.722;2023-10-13T12:30:07;14.45;;;5.32;;
52894;SDS011;38759;53.396;6.722;2023-10-13T12:32:38;19.02;;;5.50;;
52894;SDS011;38759;53.396;6.722;2023-10-13T12:35:09;29.52;;;5.43;;
52894;SDS011;38759;53.396;6.722;2023-10-13T12:37:35;22.95;;;5.88;;
52894;SDS011;38759;53.396;6.722;2023-10-13T12:40:08;25.75;;;6.07;;
52894;SDS011;38759;53.396;6.722;2023-10-13T12:42:53;23.35;;;5.93;;
52894;SDS011;38759;53.396;6.722;2023-10-13T12:45:47;28.08;;;6.53;;
52894;SDS011;38759;53.396;6.722;2023-10-13T12:48:33;23.30;;;6.03;;
52894;SDS011;38759;53.396;6.722;2023-10-13T12:51:18;15.40;;;5.90;;
52894;SDS011;38759;53.396;6.722;2023-10-13T12:54:00;23.75;;;6.20;;
52894;SDS011;38759;53.396;6.722;2023-10-13T12:56:30;23.58;;;6.38;;
52894;SDS011;38759;53.396;6.722;2023-10-13T12:59:06;22.55;;;6.90;;
52894;SDS011;38759;53.396;6.722;2023-10-13T13:01:34;16.75;;;6.55;;
52894;SDS011;38759;53.396;6.722;2023-10-13T13:04:00;21.95;;;6.72;;
52894;SDS011;38759;53.396;6.722;2023-10-13T13:06:28;19.73;;;6.63;;
52894;SDS011;38759;53.396;6.722;2023-10-13T13:08:56;17.00;;;6.00;;
52894;SDS011;38759;53.396;6.722;2023-10-13T13:11:23;14.18;;;5.38;;
52894;SDS011;38759;53.396;6.722;2023-10-13T13:13:49;19.33;;;6.45;;
52894;SDS011;38759;53.396;6.722;2023-10-13T13:16:17;27.63;;;6.68;;
52894;SDS011;38759;53.396;6.722;2023-10-13T13:18:45;21.77;;;6.03;;
52894;SDS011;38759;53.396;6.722;2023-10-13T13:21:11;26.42;;;7.85;;
52894;SDS011;38759;53.396;6.722;2023-10-13T13:23:46;20.15;;;6.25;;
52894;SDS011;38759;53.396;6.722;2023-10-13T13:26:12;23.48;;;6.32;;
52894;SDS011;38759;53.396;6.722;2023-10-13T13:28:42;13.77;;;6.20;;
52894;SDS011;38759;53.396;6.722;2023-10-13T13:31:09;21.77;;;6.68;;
52894;SDS011;38759;53.396;6.722;2023-10-13T13:33:37;19.92;;;7.40;;
52894;SDS011;38759;53.396;6.722;2023-10-13T13:36:07;17.48;;;6.25;;
52894;SDS011;38759;53.396;6.722;2023-10-13T13:38:39;21.13;;;7.18;;
52894;SDS011;38759;53.396;6.722;2023-10-13T13:41:08;20.42;;;6.72;;
52894;SDS011;38759;53.396;6.722;2023-10-13T13:43:41;20.58;;;7.93;;
52894;SDS011;38759;53.396;6.722;2023-10-13T13:46:26;22.52;;;6.35;;
52894;SDS011;38759;53.396;6.722;2023-10-13T13:48:57;19.75;;;7.93;;
52894;SDS011;38759;53.396;6.722;2023-10-13T13:51:28;22.05;;;8.50;;
52894;SDS011;38759;53.396;6.722;2023-10-13T13:53:57;21.45;;;7.78;;
52894;SDS011;38759;53.396;6.722;2023-10-13T13:56:24;17.58;;;7.43;;
52894;SDS011;38759;53.396;6.722;2023-10-13T13:58:53;22.80;;;7.30;;
52894;SDS011;38759;53.396;6.722;2023-10-13T14:01:24;17.00;;;6.45;;
52894;SDS011;38759;53.396;6.722;2023-10-13T14:03:54;18.38;;;6.82;;
52894;SDS011;38759;53.396;6.722;2023-10-13T14:06:27;22.05;;;7.32;;
52894;SDS011;38759;53.396;6.722;2023-10-13T14:08:54;27.27;;;7.13;;
52894;SDS011;38759;53.396;6.722;2023-10-13T14:11:31;18.98;;;6.55;;
52894;SDS011;38759;53.396;6.722;2023-10-13T14:14:13;22.67;;;6.07;;
52894;SDS011;38759;53.396;6.722;2023-10-13T14:16:52;19.27;;;6.75;;
52894;SDS011;38759;53.396;6.722;2023-10-13T14:19:19;18.17;;;6.25;;
52894;SDS011;38759;53.396;6.722;2023-10-13T14:21:54;23.30;;;6.05;;
52894;SDS011;38759;53.396;6.722;2023-10-13T14:24:23;19.38;;;5.82;;
52894;SDS011;38759;53.396;6.722;2023-10-13T14:26:53;20.73;;;6.28;;
52894;SDS011;38759;53.396;6.722;2023-10-13T14:29:19;17.20;;;6.18;;
52894;SDS011;38759;53.396;6.722;2023-10-13T14:31:45;21.20;;;6.47;;
52894;SDS011;38759;53.396;6.722;2023-10-13T14:34:13;25.52;;;7.47;;
52894;SDS011;38759;53.396;6.722;2023-10-13T14:36:40;19.00;;;6.63;;
52894;SDS011;38759;53.396;6.722;2023-10-13T14:39:06;18.52;;;6.57;;
52894;SDS011;38759;53.396;6.722;2023-10-13T14:41:38;21.83;;;6.07;;
52894;SDS011;38759;53.396;6.722;2023-10-13T14:44:04;17.08;;;6.50;;
52894;SDS011;38759;53.396;6.722;2023-10-13T14:46:33;19.30;;;6.35;;
52894;SDS011;38759;53.396;6.722;2023-10-13T14:49:04;24.17;;;6.78;;
52894;SDS011;38759;53.396;6.722;2023-10-13T14:51:30;25.13;;;7.70;;
52894;SDS011;38759;53.396;6.722;2023-10-13T14:53:56;28.23;;;7.68;;
52894;SDS011;38759;53.396;6.722;2023-10-13T14:56:24;15.82;;;6.13;;
52894;SDS011;38759;53.396;6.722;2023-10-13T14:58:52;17.67;;;5.88;;
52894;SDS011;38759;53.396;6.722;2023-10-13T15:01:19;18.17;;;5.97;;
52894;SDS011;38759;53.396;6.722;2023-10-13T15:03:47;26.25;;;6.90;;
52894;SDS011;38759;53.396;6.722;2023-10-13T15:06:26;16.83;;;6.28;;
52894;SDS011;38759;53.396;6.722;2023-10-13T15:08:57;18.40;;;6.07;;
52894;SDS011;38759;53.396;6.722;2023-10-13T15:11:24;18.08;;;5.55;;
52894;SDS011;38759;53.396;6.722;2023-10-13T15:13:55;18.70;;;6.43;;
52894;SDS011;38759;53.396;6.722;2023-10-13T15:16:25;28.13;;;5.93;;
52894;SDS011;38759;53.396;6.722;2023-10-13T15:18:52;15.73;;;5.47;;
52894;SDS011;38759;53.396;6.722;2023-10-13T15:21:25;18.75;;;6.40;;
52894;SDS011;38759;53.396;6.722;2023-10-13T15:24:02;20.70;;;5.65;;
52894;SDS011;38759;53.396;6.722;2023-10-13T15:26:32;15.98;;;5.25;;
52894;SDS011;38759;53.396;6.722;2023-10-13T15:29:03;14.85;;;5.22;;
52894;SDS011;38759;53.396;6.722;2023-10-13T15:31:34;21.17;;;5.85;;
52894;SDS011;38759;53.396;6.722;2023-10-13T15:34:00;16.17;;;6.07;;
52894;SDS011;38759;53.396;6.722;2023-10-13T15:36:38;25.45;;;6.05;;
52894;SDS011;38759;53.396;6.722;2023-10-13T15:39:08;22.17;;;6.60;;
52894;SDS011;38759;53.396;6.722;2023-10-13T15:41:40;25.25;;;6.50;;